Terminal Aerodrome Forecast
Issued by NWS Duluth, MN

Home | Current Version | Previous Version | Text Only | Print | Product List | Glossary On
Versions: 1 2 3 4 5 6 7 8 9 10 11 12 13 14 15 16 17 18 19 20 21 22 23 24 25
000
FTUS43 KDLH 260500
TAFDLH
TAF
KDLH 260524Z 2606/2706 VRB04KT 5SM BR VCSH OVC004
      TEMPO 2609/2613 1/2SM FG
     FM261400 VRB04KT 4SM BR OVC014
     FM261800 08008KT P6SM BKN050
     FM270200 VRB03KT P6SM FEW010 OVC100=

USA.gov is the U.S. government's official web portal to all federal, state and local government web resources and services.